ICAO code: LHPR | IATA code: QGY | AFTN: LHPRZPZX | english | deutsch
Időjárás: 2018-10-21 01:10 (UTC) | Hőmérséklet: 8.7 °C | QNH: 1024.2 hPa | Szél: 5.6 m/s | Részletek
Live ATC LHPR
Webkameránk élőképe

Győr-Pér Repülőtér időjárás adatok

Metar:
METAR LHPR 202145Z AUTO 32011KT CAVOK 11/06 Q1024 RMK BL


Taf:
TAF LHPR 202000Z NIL


Jelenidő:
Nem volt érdemleges időjárási jelenség az elmúlt órában
Időbélyeg: 2018-10-21 01:10:00 UTC
Hőmérséklet:
8.7 °C
 
Harmatpont:
2.6 °C
 
Rel. páratartalom:
66%
 
QNH:
1024.2 hPa
 
Szélsebesség:
5.6 m/s
Max:
7.8 m/s
Szélirány:
320°
 
Csapadék (1 óra):
0.0 mm
 
Látótávolság:
20000 m
 
RVR:
>1500 m RWY30
 
1. felhőréteg mennyisége:
7 octa
 
1. felhőréteg alapja:
5340 m


Az adatokat szolgáltatja
az Országos Meteorológiai Szolgálat
Győr-Pér Repülőtér | H 9099 Pér, Repülőtér | Tel: +36/96/559-200 | Fax: +36/96/559-202

ICAO code: LHPR | IATA code: QGY | AFTN: LHPRZPZX


weboldal tervezés: IRQ